sensor_id;sensor_type;location;lat;lon;timestamp;P1;durP1;ratioP1;P2;durP2;ratioP2
56519;SDS011;42420;53.586;10.052;2023-05-10T00:04:41;6.75;;;2.97;;
56519;SDS011;42420;53.586;10.052;2023-05-10T00:09:40;6.10;;;2.40;;
56519;SDS011;42420;53.586;10.052;2023-05-10T00:19:46;8.27;;;2.70;;
56519;SDS011;42420;53.586;10.052;2023-05-10T00:24:47;6.00;;;2.45;;
56519;SDS011;42420;53.586;10.052;2023-05-10T00:29:44;6.32;;;2.60;;
56519;SDS011;42420;53.586;10.052;2023-05-10T00:35:01;7.82;;;2.60;;
56519;SDS011;42420;53.586;10.052;2023-05-10T00:44:54;7.65;;;2.63;;
56519;SDS011;42420;53.586;10.052;2023-05-10T00:50:09;6.43;;;2.40;;
56519;SDS011;42420;53.586;10.052;2023-05-10T00:55:09;5.30;;;2.80;;
56519;SDS011;42420;53.586;10.052;2023-05-10T01:00:17;5.65;;;2.47;;
56519;SDS011;42420;53.586;10.052;2023-05-10T01:05:48;5.90;;;2.60;;
56519;SDS011;42420;53.586;10.052;2023-05-10T01:10:52;6.78;;;3.13;;
56519;SDS011;42420;53.586;10.052;2023-05-10T01:34:09;5.70;;;2.70;;
56519;SDS011;42420;53.586;10.052;2023-05-10T01:39:46;7.43;;;3.58;;
56519;SDS011;42420;53.586;10.052;2023-05-10T01:45:08;7.63;;;2.90;;
56519;SDS011;42420;53.586;10.052;2023-05-10T01:50:14;7.15;;;3.85;;
56519;SDS011;42420;53.586;10.052;2023-05-10T02:01:41;8.73;;;2.55;;
56519;SDS011;42420;53.586;10.052;2023-05-10T02:06:43;7.05;;;2.80;;
56519;SDS011;42420;53.586;10.052;2023-05-10T02:12:02;8.10;;;2.40;;
56519;SDS011;42420;53.586;10.052;2023-05-10T02:17:04;5.00;;;2.60;;
56519;SDS011;42420;53.586;10.052;2023-05-10T02:22:02;4.93;;;2.30;;
56519;SDS011;42420;53.586;10.052;2023-05-10T02:26:59;8.15;;;3.17;;
56519;SDS011;42420;53.586;10.052;2023-05-10T02:31:56;5.55;;;2.83;;
56519;SDS011;42420;53.586;10.052;2023-05-10T02:36:54;6.32;;;2.83;;
56519;SDS011;42420;53.586;10.052;2023-05-10T02:41:51;6.03;;;2.80;;
56519;SDS011;42420;53.586;10.052;2023-05-10T02:46:48;7.20;;;3.08;;
56519;SDS011;42420;53.586;10.052;2023-05-10T02:51:47;9.68;;;3.10;;
56519;SDS011;42420;53.586;10.052;2023-05-10T02:56:53;7.15;;;3.15;;
56519;SDS011;42420;53.586;10.052;2023-05-10T03:01:53;9.45;;;4.15;;
56519;SDS011;42420;53.586;10.052;2023-05-10T03:06:51;6.10;;;2.80;;
56519;SDS011;42420;53.586;10.052;2023-05-10T03:11:55;7.40;;;3.28;;
56519;SDS011;42420;53.586;10.052;2023-05-10T03:17:04;6.75;;;2.83;;
56519;SDS011;42420;53.586;10.052;2023-05-10T03:22:08;6.20;;;2.85;;
56519;SDS011;42420;53.586;10.052;2023-05-10T03:27:06;7.20;;;2.97;;
56519;SDS011;42420;53.586;10.052;2023-05-10T03:32:07;6.18;;;2.85;;
56519;SDS011;42420;53.586;10.052;2023-05-10T03:37:05;8.18;;;2.78;;
56519;SDS011;42420;53.586;10.052;2023-05-10T03:46:59;8.15;;;2.85;;
56519;SDS011;42420;53.586;10.052;2023-05-10T03:51:56;8.38;;;3.30;;
56519;SDS011;42420;53.586;10.052;2023-05-10T04:01:49;8.13;;;3.08;;
56519;SDS011;42420;53.586;10.052;2023-05-10T04:11:42;6.55;;;3.15;;
56519;SDS011;42420;53.586;10.052;2023-05-10T04:16:45;7.00;;;3.55;;
56519;SDS011;42420;53.586;10.052;2023-05-10T04:21:41;7.50;;;3.17;;
56519;SDS011;42420;53.586;10.052;2023-05-10T04:26:38;8.20;;;3.33;;
56519;SDS011;42420;53.586;10.052;2023-05-10T04:36:32;5.27;;;3.00;;
56519;SDS011;42420;53.586;10.052;2023-05-10T04:47:39;6.22;;;3.17;;
56519;SDS011;42420;53.586;10.052;2023-05-10T04:57:32;8.90;;;3.40;;
56519;SDS011;42420;53.586;10.052;2023-05-10T05:02:29;12.32;;;3.17;;
56519;SDS011;42420;53.586;10.052;2023-05-10T05:07:25;6.55;;;2.97;;
56519;SDS011;42420;53.586;10.052;2023-05-10T05:17:18;5.13;;;3.05;;
56519;SDS011;42420;53.586;10.052;2023-05-10T05:27:12;5.57;;;2.78;;
56519;SDS011;42420;53.586;10.052;2023-05-10T05:32:12;7.22;;;3.00;;
56519;SDS011;42420;53.586;10.052;2023-05-10T05:37:12;5.50;;;3.20;;
56519;SDS011;42420;53.586;10.052;2023-05-10T05:42:12;7.60;;;3.72;;
56519;SDS011;42420;53.586;10.052;2023-05-10T05:47:09;7.82;;;2.95;;
56519;SDS011;42420;53.586;10.052;2023-05-10T05:52:06;6.00;;;2.85;;
56519;SDS011;42420;53.586;10.052;2023-05-10T06:02:00;7.70;;;3.03;;
56519;SDS011;42420;53.586;10.052;2023-05-10T06:07:26;10.15;;;3.17;;
56519;SDS011;42420;53.586;10.052;2023-05-10T06:12:26;9.00;;;2.88;;
56519;SDS011;42420;53.586;10.052;2023-05-10T06:17:28;7.00;;;2.75;;
56519;SDS011;42420;53.586;10.052;2023-05-10T06:22:53;6.18;;;2.70;;
56519;SDS011;42420;53.586;10.052;2023-05-10T06:27:56;9.18;;;3.45;;
56519;SDS011;42420;53.586;10.052;2023-05-10T06:33:13;8.15;;;3.20;;
56519;SDS011;42420;53.586;10.052;2023-05-10T06:38:14;6.67;;;3.03;;
56519;SDS011;42420;53.586;10.052;2023-05-10T06:43:11;5.55;;;2.78;;
56519;SDS011;42420;53.586;10.052;2023-05-10T06:48:09;7.88;;;3.17;;
56519;SDS011;42420;53.586;10.052;2023-05-10T06:53:06;6.20;;;3.00;;
56519;SDS011;42420;53.586;10.052;2023-05-10T06:58:02;11.63;;;3.08;;
56519;SDS011;42420;53.586;10.052;2023-05-10T07:03:15;7.50;;;3.22;;
56519;SDS011;42420;53.586;10.052;2023-05-10T07:08:12;8.77;;;3.50;;
56519;SDS011;42420;53.586;10.052;2023-05-10T07:13:09;8.98;;;2.97;;
56519;SDS011;42420;53.586;10.052;2023-05-10T07:18:07;14.10;;;3.00;;
56519;SDS011;42420;53.586;10.052;2023-05-10T07:23:04;6.93;;;3.22;;
56519;SDS011;42420;53.586;10.052;2023-05-10T07:28:05;6.55;;;3.10;;
56519;SDS011;42420;53.586;10.052;2023-05-10T07:33:01;8.55;;;3.35;;
56519;SDS011;42420;53.586;10.052;2023-05-10T07:37:58;6.13;;;2.92;;
56519;SDS011;42420;53.586;10.052;2023-05-10T07:42:57;7.07;;;3.35;;
56519;SDS011;42420;53.586;10.052;2023-05-10T07:47:55;7.65;;;3.38;;
56519;SDS011;42420;53.586;10.052;2023-05-10T07:52:55;7.93;;;3.42;;
56519;SDS011;42420;53.586;10.052;2023-05-10T07:57:51;6.30;;;2.90;;
56519;SDS011;42420;53.586;10.052;2023-05-10T08:02:48;7.63;;;3.05;;
56519;SDS011;42420;53.586;10.052;2023-05-10T08:07:44;7.75;;;3.20;;
56519;SDS011;42420;53.586;10.052;2023-05-10T08:12:41;8.98;;;3.08;;
56519;SDS011;42420;53.586;10.052;2023-05-10T08:17:37;10.50;;;3.45;;
56519;SDS011;42420;53.586;10.052;2023-05-10T08:22:34;7.22;;;3.03;;
56519;SDS011;42420;53.586;10.052;2023-05-10T08:27:31;7.28;;;3.03;;
56519;SDS011;42420;53.586;10.052;2023-05-10T08:32:27;7.45;;;3.15;;
56519;SDS011;42420;53.586;10.052;2023-05-10T08:37:24;8.93;;;3.70;;
56519;SDS011;42420;53.586;10.052;2023-05-10T08:42:21;6.95;;;3.33;;
56519;SDS011;42420;53.586;10.052;2023-05-10T08:47:19;10.95;;;3.17;;
56519;SDS011;42420;53.586;10.052;2023-05-10T08:52:30;7.80;;;3.33;;
56519;SDS011;42420;53.586;10.052;2023-05-10T08:57:28;7.53;;;3.55;;
56519;SDS011;42420;53.586;10.052;2023-05-10T09:02:25;11.90;;;3.30;;
56519;SDS011;42420;53.586;10.052;2023-05-10T09:07:21;7.22;;;3.28;;
56519;SDS011;42420;53.586;10.052;2023-05-10T09:12:18;7.05;;;3.40;;
56519;SDS011;42420;53.586;10.052;2023-05-10T09:17:15;11.13;;;3.55;;
56519;SDS011;42420;53.586;10.052;2023-05-10T09:22:20;6.85;;;3.55;;
56519;SDS011;42420;53.586;10.052;2023-05-10T09:27:16;8.55;;;4.07;;
56519;SDS011;42420;53.586;10.052;2023-05-10T09:32:16;6.35;;;3.33;;
56519;SDS011;42420;53.586;10.052;2023-05-10T09:37:19;12.65;;;3.75;;
56519;SDS011;42420;53.586;10.052;2023-05-10T09:42:25;7.50;;;3.60;;
56519;SDS011;42420;53.586;10.052;2023-05-10T09:47:23;10.38;;;3.30;;
56519;SDS011;42420;53.586;10.052;2023-05-10T09:52:21;9.23;;;3.67;;
56519;SDS011;42420;53.586;10.052;2023-05-10T09:57:21;10.98;;;3.65;;
56519;SDS011;42420;53.586;10.052;2023-05-10T10:02:48;10.63;;;4.25;;
56519;SDS011;42420;53.586;10.052;2023-05-10T10:07:50;8.55;;;4.30;;
56519;SDS011;42420;53.586;10.052;2023-05-10T10:12:48;6.95;;;4.50;;
56519;SDS011;42420;53.586;10.052;2023-05-10T10:17:48;9.20;;;4.43;;
56519;SDS011;42420;53.586;10.052;2023-05-10T10:22:46;9.75;;;5.13;;
56519;SDS011;42420;53.586;10.052;2023-05-10T10:32:57;11.50;;;5.38;;
56519;SDS011;42420;53.586;10.052;2023-05-10T10:38:21;9.32;;;5.13;;
56519;SDS011;42420;53.586;10.052;2023-05-10T10:43:28;11.63;;;5.35;;
56519;SDS011;42420;53.586;10.052;2023-05-10T10:48:25;13.75;;;5.50;;
56519;SDS011;42420;53.586;10.052;2023-05-10T10:53:22;10.50;;;5.88;;
56519;SDS011;42420;53.586;10.052;2023-05-10T10:58:28;8.00;;;5.30;;
56519;SDS011;42420;53.586;10.052;2023-05-10T11:03:26;13.30;;;6.93;;
56519;SDS011;42420;53.586;10.052;2023-05-10T11:08:31;10.88;;;5.90;;
56519;SDS011;42420;53.586;10.052;2023-05-10T11:18:35;13.27;;;6.32;;
56519;SDS011;42420;53.586;10.052;2023-05-10T11:23:47;9.75;;;6.20;;
56519;SDS011;42420;53.586;10.052;2023-05-10T11:28:53;10.73;;;5.57;;
56519;SDS011;42420;53.586;10.052;2023-05-10T11:33:52;8.82;;;6.10;;
56519;SDS011;42420;53.586;10.052;2023-05-10T11:38:50;9.23;;;5.97;;
56519;SDS011;42420;53.586;10.052;2023-05-10T11:43:48;9.95;;;6.05;;
56519;SDS011;42420;53.586;10.052;2023-05-10T11:48:46;8.43;;;6.07;;
56519;SDS011;42420;53.586;10.052;2023-05-10T11:53:47;8.95;;;6.28;;
56519;SDS011;42420;53.586;10.052;2023-05-10T11:58:52;9.73;;;6.45;;
56519;SDS011;42420;53.586;10.052;2023-05-10T12:03:52;12.63;;;7.30;;
56519;SDS011;42420;53.586;10.052;2023-05-10T12:08:50;11.20;;;7.30;;
56519;SDS011;42420;53.586;10.052;2023-05-10T12:13:49;11.45;;;7.15;;
56519;SDS011;42420;53.586;10.052;2023-05-10T12:19:00;11.55;;;7.28;;
56519;SDS011;42420;53.586;10.052;2023-05-10T12:24:01;11.90;;;7.63;;
56519;SDS011;42420;53.586;10.052;2023-05-10T12:29:12;14.40;;;8.93;;
56519;SDS011;42420;53.586;10.052;2023-05-10T12:34:21;10.85;;;7.50;;
56519;SDS011;42420;53.586;10.052;2023-05-10T12:39:23;11.80;;;7.75;;
56519;SDS011;42420;53.586;10.052;2023-05-10T12:44:20;10.93;;;6.97;;
56519;SDS011;42420;53.586;10.052;2023-05-10T12:49:16;12.35;;;8.05;;
56519;SDS011;42420;53.586;10.052;2023-05-10T12:54:15;10.18;;;7.18;;
56519;SDS011;42420;53.586;10.052;2023-05-10T12:59:19;11.15;;;7.28;;
56519;SDS011;42420;53.586;10.052;2023-05-10T13:04:15;10.18;;;7.57;;
56519;SDS011;42420;53.586;10.052;2023-05-10T13:09:12;11.40;;;6.55;;
56519;SDS011;42420;53.586;10.052;2023-05-10T13:14:09;9.93;;;5.57;;
56519;SDS011;42420;53.586;10.052;2023-05-10T13:19:17;8.90;;;5.13;;
56519;SDS011;42420;53.586;10.052;2023-05-10T13:24:14;6.97;;;3.83;;
56519;SDS011;42420;53.586;10.052;2023-05-10T13:29:11;9.77;;;5.40;;
56519;SDS011;42420;53.586;10.052;2023-05-10T13:34:07;7.05;;;4.90;;
56519;SDS011;42420;53.586;10.052;2023-05-10T13:39:04;6.97;;;4.47;;
56519;SDS011;42420;53.586;10.052;2023-05-10T13:44:01;8.30;;;4.93;;
56519;SDS011;42420;53.586;10.052;2023-05-10T13:48:57;6.72;;;4.57;;
56519;SDS011;42420;53.586;10.052;2023-05-10T13:53:54;8.85;;;5.90;;
56519;SDS011;42420;53.586;10.052;2023-05-10T13:58:51;6.50;;;4.95;;
56519;SDS011;42420;53.586;10.052;2023-05-10T14:03:47;8.10;;;5.32;;
56519;SDS011;42420;53.586;10.052;2023-05-10T14:08:44;7.78;;;5.50;;
56519;SDS011;42420;53.586;10.052;2023-05-10T14:13:44;7.60;;;5.10;;
56519;SDS011;42420;53.586;10.052;2023-05-10T14:18:41;7.35;;;5.25;;
56519;SDS011;42420;53.586;10.052;2023-05-10T14:23:38;6.97;;;5.03;;
56519;SDS011;42420;53.586;10.052;2023-05-10T14:28:34;7.68;;;4.95;;
56519;SDS011;42420;53.586;10.052;2023-05-10T14:33:31;8.05;;;5.53;;
56519;SDS011;42420;53.586;10.052;2023-05-10T14:38:27;8.27;;;4.57;;
56519;SDS011;42420;53.586;10.052;2023-05-10T14:43:24;7.13;;;4.53;;
56519;SDS011;42420;53.586;10.052;2023-05-10T14:48:25;8.10;;;4.50;;
56519;SDS011;42420;53.586;10.052;2023-05-10T14:53:22;7.13;;;3.83;;
56519;SDS011;42420;53.586;10.052;2023-05-10T14:58:19;6.85;;;4.05;;
56519;SDS011;42420;53.586;10.052;2023-05-10T15:03:18;7.72;;;4.80;;
56519;SDS011;42420;53.586;10.052;2023-05-10T15:08:20;6.95;;;4.47;;
56519;SDS011;42420;53.586;10.052;2023-05-10T15:13:41;7.82;;;4.70;;
56519;SDS011;42420;53.586;10.052;2023-05-10T15:18:38;6.97;;;4.68;;
56519;SDS011;42420;53.586;10.052;2023-05-10T15:23:34;6.57;;;4.63;;
56519;SDS011;42420;53.586;10.052;2023-05-10T15:28:31;10.75;;;5.18;;
56519;SDS011;42420;53.586;10.052;2023-05-10T15:33:32;7.60;;;4.78;;
56519;SDS011;42420;53.586;10.052;2023-05-10T15:38:42;9.25;;;4.90;;
56519;SDS011;42420;53.586;10.052;2023-05-10T15:43:41;6.57;;;4.20;;
56519;SDS011;42420;53.586;10.052;2023-05-10T15:48:40;7.07;;;4.38;;
56519;SDS011;42420;53.586;10.052;2023-05-10T15:53:36;6.97;;;4.68;;
56519;SDS011;42420;53.586;10.052;2023-05-10T15:58:56;7.78;;;4.38;;
56519;SDS011;42420;53.586;10.052;2023-05-10T16:03:53;7.30;;;4.30;;
56519;SDS011;42420;53.586;10.052;2023-05-10T16:08:50;6.22;;;4.05;;
56519;SDS011;42420;53.586;10.052;2023-05-10T16:13:54;9.27;;;4.68;;
56519;SDS011;42420;53.586;10.052;2023-05-10T16:20:04;9.02;;;4.35;;
56519;SDS011;42420;53.586;10.052;2023-05-10T16:25:13;6.50;;;4.28;;
56519;SDS011;42420;53.586;10.052;2023-05-10T16:35:44;8.40;;;5.53;;
56519;SDS011;42420;53.586;10.052;2023-05-10T16:40:42;8.88;;;5.47;;
56519;SDS011;42420;53.586;10.052;2023-05-10T16:45:52;9.77;;;5.68;;
56519;SDS011;42420;53.586;10.052;2023-05-10T16:51:16;11.07;;;5.28;;
56519;SDS011;42420;53.586;10.052;2023-05-10T16:56:12;7.53;;;5.18;;
56519;SDS011;42420;53.586;10.052;2023-05-10T17:01:09;7.60;;;4.78;;
56519;SDS011;42420;53.586;10.052;2023-05-10T17:06:05;8.70;;;5.18;;
56519;SDS011;42420;53.586;10.052;2023-05-10T17:11:02;7.13;;;4.63;;
56519;SDS011;42420;53.586;10.052;2023-05-10T17:16:00;7.82;;;5.38;;
56519;SDS011;42420;53.586;10.052;2023-05-10T17:20:59;7.80;;;4.85;;
56519;SDS011;42420;53.586;10.052;2023-05-10T17:25:55;7.00;;;4.10;;
56519;SDS011;42420;53.586;10.052;2023-05-10T17:30:55;7.50;;;4.45;;
56519;SDS011;42420;53.586;10.052;2023-05-10T17:35:52;7.97;;;5.03;;
56519;SDS011;42420;53.586;10.052;2023-05-10T17:40:49;6.82;;;4.45;;
56519;SDS011;42420;53.586;10.052;2023-05-10T17:45:46;7.70;;;4.10;;
56519;SDS011;42420;53.586;10.052;2023-05-10T17:50:44;6.70;;;4.32;;
56519;SDS011;42420;53.586;10.052;2023-05-10T17:55:41;6.50;;;3.95;;
56519;SDS011;42420;53.586;10.052;2023-05-10T18:00:37;7.88;;;5.00;;
56519;SDS011;42420;53.586;10.052;2023-05-10T18:05:35;6.68;;;4.78;;
56519;SDS011;42420;53.586;10.052;2023-05-10T18:10:32;8.07;;;5.63;;
56519;SDS011;42420;53.586;10.052;2023-05-10T18:15:29;8.27;;;5.70;;
56519;SDS011;42420;53.586;10.052;2023-05-10T18:20:28;8.18;;;5.25;;
56519;SDS011;42420;53.586;10.052;2023-05-10T18:25:27;7.50;;;5.70;;
56519;SDS011;42420;53.586;10.052;2023-05-10T18:30:24;9.50;;;6.55;;
56519;SDS011;42420;53.586;10.052;2023-05-10T18:35:21;8.73;;;5.72;;
56519;SDS011;42420;53.586;10.052;2023-05-10T18:40:18;8.05;;;5.57;;
56519;SDS011;42420;53.586;10.052;2023-05-10T18:45:19;9.63;;;6.85;;
56519;SDS011;42420;53.586;10.052;2023-05-10T18:50:15;12.43;;;7.78;;
56519;SDS011;42420;53.586;10.052;2023-05-10T18:55:12;8.73;;;6.18;;
56519;SDS011;42420;53.586;10.052;2023-05-10T19:00:09;8.25;;;5.00;;
56519;SDS011;42420;53.586;10.052;2023-05-10T19:05:07;8.93;;;5.13;;
56519;SDS011;42420;53.586;10.052;2023-05-10T19:10:04;8.88;;;5.82;;
56519;SDS011;42420;53.586;10.052;2023-05-10T19:15:01;9.77;;;6.13;;
56519;SDS011;42420;53.586;10.052;2023-05-10T19:19:58;7.72;;;4.80;;
56519;SDS011;42420;53.586;10.052;2023-05-10T19:24:57;8.02;;;5.10;;
56519;SDS011;42420;53.586;10.052;2023-05-10T19:29:56;6.97;;;4.40;;
56519;SDS011;42420;53.586;10.052;2023-05-10T19:34:53;6.30;;;4.15;;
56519;SDS011;42420;53.586;10.052;2023-05-10T19:39:49;8.43;;;5.18;;
56519;SDS011;42420;53.586;10.052;2023-05-10T19:44:47;7.03;;;4.10;;
56519;SDS011;42420;53.586;10.052;2023-05-10T19:49:43;6.05;;;3.63;;
56519;SDS011;42420;53.586;10.052;2023-05-10T19:54:40;5.57;;;3.35;;
56519;SDS011;42420;53.586;10.052;2023-05-10T19:59:36;6.38;;;3.85;;
56519;SDS011;42420;53.586;10.052;2023-05-10T20:04:33;4.75;;;3.22;;
56519;SDS011;42420;53.586;10.052;2023-05-10T20:09:30;5.70;;;3.90;;
56519;SDS011;42420;53.586;10.052;2023-05-10T20:19:22;6.43;;;4.50;;
56519;SDS011;42420;53.586;10.052;2023-05-10T20:24:19;6.40;;;4.97;;
56519;SDS011;42420;53.586;10.052;2023-05-10T20:29:15;6.43;;;4.45;;
56519;SDS011;42420;53.586;10.052;2023-05-10T20:34:12;6.53;;;4.97;;
56519;SDS011;42420;53.586;10.052;2023-05-10T20:39:09;6.40;;;4.97;;
56519;SDS011;42420;53.586;10.052;2023-05-10T20:49:03;7.40;;;5.70;;
56519;SDS011;42420;53.586;10.052;2023-05-10T20:54:01;7.60;;;5.88;;
56519;SDS011;42420;53.586;10.052;2023-05-10T20:58:59;9.43;;;6.60;;
56519;SDS011;42420;53.586;10.052;2023-05-10T21:03:56;9.60;;;6.82;;
56519;SDS011;42420;53.586;10.052;2023-05-10T21:08:52;10.13;;;7.63;;
56519;SDS011;42420;53.586;10.052;2023-05-10T21:18:46;11.38;;;8.70;;
56519;SDS011;42420;53.586;10.052;2023-05-10T21:23:47;13.30;;;9.90;;
56519;SDS011;42420;53.586;10.052;2023-05-10T21:28:44;12.82;;;9.15;;
56519;SDS011;42420;53.586;10.052;2023-05-10T21:33:40;12.30;;;9.52;;
56519;SDS011;42420;53.586;10.052;2023-05-10T21:43:34;14.07;;;10.15;;
56519;SDS011;42420;53.586;10.052;2023-05-10T21:53:27;15.70;;;11.40;;
56519;SDS011;42420;53.586;10.052;2023-05-10T21:58:23;16.38;;;11.88;;
56519;SDS011;42420;53.586;10.052;2023-05-10T22:08:17;15.80;;;11.13;;
56519;SDS011;42420;53.586;10.052;2023-05-10T22:18:09;16.23;;;9.95;;
56519;SDS011;42420;53.586;10.052;2023-05-10T22:23:06;15.23;;;9.93;;
56519;SDS011;42420;53.586;10.052;2023-05-10T22:32:59;13.90;;;9.73;;
56519;SDS011;42420;53.586;10.052;2023-05-10T22:42:52;14.75;;;9.98;;
56519;SDS011;42420;53.586;10.052;2023-05-10T22:47:50;15.18;;;10.18;;
56519;SDS011;42420;53.586;10.052;2023-05-10T22:52:47;14.73;;;9.85;;
56519;SDS011;42420;53.586;10.052;2023-05-10T22:57:51;16.48;;;10.82;;
56519;SDS011;42420;53.586;10.052;2023-05-10T23:02:48;17.67;;;11.07;;
56519;SDS011;42420;53.586;10.052;2023-05-10T23:07:45;17.20;;;11.35;;
56519;SDS011;42420;53.586;10.052;2023-05-10T23:12:49;18.27;;;11.95;;
56519;SDS011;42420;53.586;10.052;2023-05-10T23:17:47;18.77;;;12.25;;
56519;SDS011;42420;53.586;10.052;2023-05-10T23:22:47;18.35;;;12.60;;
56519;SDS011;42420;53.586;10.052;2023-05-10T23:27:44;17.58;;;11.52;;
56519;SDS011;42420;53.586;10.052;2023-05-10T23:32:51;18.87;;;12.00;;
56519;SDS011;42420;53.586;10.052;2023-05-10T23:37:47;18.52;;;11.02;;
56519;SDS011;42420;53.586;10.052;2023-05-10T23:42:44;19.70;;;12.05;;
56519;SDS011;42420;53.586;10.052;2023-05-10T23:47:41;19.60;;;11.52;;
56519;SDS011;42420;53.586;10.052;2023-05-10T23:52:39;21.27;;;12.23;;
